sensor_id;sensor_type;location;lat;lon;timestamp;P1;durP1;ratioP1;P2;durP2;ratioP2
10442;SDS011;5269;51.146;16.986;2023-02-13T00:01:52;20.30;;;10.15;;
10442;SDS011;5269;51.146;16.986;2023-02-13T00:04:19;17.30;;;9.68;;
10442;SDS011;5269;51.146;16.986;2023-02-13T00:06:47;17.52;;;10.63;;
10442;SDS011;5269;51.146;16.986;2023-02-13T00:09:14;18.17;;;11.02;;
10442;SDS011;5269;51.146;16.986;2023-02-13T00:11:41;17.98;;;10.25;;
10442;SDS011;5269;51.146;16.986;2023-02-13T00:14:08;20.85;;;9.75;;
10442;SDS011;5269;51.146;16.986;2023-02-13T00:16:35;18.15;;;9.75;;
10442;SDS011;5269;51.146;16.986;2023-02-13T00:19:02;17.02;;;9.15;;
10442;SDS011;5269;51.146;16.986;2023-02-13T00:21:29;18.55;;;9.82;;
10442;SDS011;5269;51.146;16.986;2023-02-13T00:23:57;15.35;;;8.63;;
10442;SDS011;5269;51.146;16.986;2023-02-13T00:26:24;13.38;;;8.85;;
10442;SDS011;5269;51.146;16.986;2023-02-13T00:28:51;17.05;;;9.30;;
10442;SDS011;5269;51.146;16.986;2023-02-13T00:31:19;15.15;;;8.57;;
10442;SDS011;5269;51.146;16.986;2023-02-13T00:33:46;14.93;;;8.75;;
10442;SDS011;5269;51.146;16.986;2023-02-13T00:36:15;13.88;;;9.13;;
10442;SDS011;5269;51.146;16.986;2023-02-13T00:38:43;16.20;;;8.40;;
10442;SDS011;5269;51.146;16.986;2023-02-13T00:41:12;11.98;;;8.45;;
10442;SDS011;5269;51.146;16.986;2023-02-13T00:43:40;16.10;;;8.57;;
10442;SDS011;5269;51.146;16.986;2023-02-13T00:46:08;17.35;;;8.23;;
10442;SDS011;5269;51.146;16.986;2023-02-13T00:48:35;12.65;;;8.32;;
10442;SDS011;5269;51.146;16.986;2023-02-13T00:51:03;14.25;;;8.40;;
10442;SDS011;5269;51.146;16.986;2023-02-13T00:53:32;14.25;;;7.75;;
10442;SDS011;5269;51.146;16.986;2023-02-13T00:56:00;11.05;;;7.05;;
10442;SDS011;5269;51.146;16.986;2023-02-13T00:58:28;13.20;;;7.57;;
10442;SDS011;5269;51.146;16.986;2023-02-13T01:00:55;13.52;;;7.93;;
10442;SDS011;5269;51.146;16.986;2023-02-13T01:03:22;14.38;;;7.80;;
10442;SDS011;5269;51.146;16.986;2023-02-13T01:05:50;14.38;;;8.40;;
10442;SDS011;5269;51.146;16.986;2023-02-13T01:08:17;13.52;;;7.60;;
10442;SDS011;5269;51.146;16.986;2023-02-13T01:10:45;18.40;;;8.30;;
10442;SDS011;5269;51.146;16.986;2023-02-13T01:13:13;14.05;;;8.45;;
10442;SDS011;5269;51.146;16.986;2023-02-13T01:15:43;13.52;;;8.13;;
10442;SDS011;5269;51.146;16.986;2023-02-13T01:18:11;12.23;;;8.05;;
10442;SDS011;5269;51.146;16.986;2023-02-13T01:20:39;11.38;;;7.68;;
10442;SDS011;5269;51.146;16.986;2023-02-13T01:23:08;12.90;;;8.02;;
10442;SDS011;5269;51.146;16.986;2023-02-13T01:25:40;13.90;;;8.25;;
10442;SDS011;5269;51.146;16.986;2023-02-13T01:28:07;10.77;;;7.68;;
10442;SDS011;5269;51.146;16.986;2023-02-13T01:30:34;13.45;;;8.45;;
10442;SDS011;5269;51.146;16.986;2023-02-13T01:33:02;11.60;;;7.78;;
10442;SDS011;5269;51.146;16.986;2023-02-13T01:35:29;12.10;;;7.93;;
10442;SDS011;5269;51.146;16.986;2023-02-13T01:37:56;11.40;;;8.13;;
10442;SDS011;5269;51.146;16.986;2023-02-13T01:40:23;13.27;;;7.72;;
10442;SDS011;5269;51.146;16.986;2023-02-13T01:42:53;12.02;;;7.40;;
10442;SDS011;5269;51.146;16.986;2023-02-13T01:45:25;17.23;;;7.75;;
10442;SDS011;5269;51.146;16.986;2023-02-13T01:47:53;14.05;;;7.75;;
10442;SDS011;5269;51.146;16.986;2023-02-13T01:50:27;10.30;;;7.18;;
10442;SDS011;5269;51.146;16.986;2023-02-13T01:52:57;11.48;;;7.75;;
10442;SDS011;5269;51.146;16.986;2023-02-13T01:55:28;14.25;;;7.88;;
10442;SDS011;5269;51.146;16.986;2023-02-13T01:57:56;10.48;;;7.00;;
10442;SDS011;5269;51.146;16.986;2023-02-13T02:00:27;10.13;;;6.70;;
10442;SDS011;5269;51.146;16.986;2023-02-13T02:02:55;12.57;;;7.50;;
10442;SDS011;5269;51.146;16.986;2023-02-13T02:05:29;11.77;;;7.55;;
10442;SDS011;5269;51.146;16.986;2023-02-13T02:07:57;14.77;;;8.38;;
10442;SDS011;5269;51.146;16.986;2023-02-13T02:10:27;11.25;;;8.38;;
10442;SDS011;5269;51.146;16.986;2023-02-13T02:12:57;14.75;;;7.95;;
10442;SDS011;5269;51.146;16.986;2023-02-13T02:15:30;12.05;;;7.78;;
10442;SDS011;5269;51.146;16.986;2023-02-13T02:17:57;12.85;;;7.55;;
10442;SDS011;5269;51.146;16.986;2023-02-13T02:20:27;11.05;;;7.32;;
10442;SDS011;5269;51.146;16.986;2023-02-13T02:23:39;10.52;;;7.80;;
10442;SDS011;5269;51.146;16.986;2023-02-13T02:26:46;11.93;;;7.65;;
10442;SDS011;5269;51.146;16.986;2023-02-13T02:30:01;11.52;;;8.02;;
10442;SDS011;5269;51.146;16.986;2023-02-13T02:32:55;19.15;;;9.05;;
10442;SDS011;5269;51.146;16.986;2023-02-13T02:35:30;12.95;;;8.48;;
10442;SDS011;5269;51.146;16.986;2023-02-13T02:38:12;13.35;;;8.23;;
10442;SDS011;5269;51.146;16.986;2023-02-13T02:40:49;13.57;;;8.30;;
10442;SDS011;5269;51.146;16.986;2023-02-13T02:43:25;12.68;;;8.23;;
10442;SDS011;5269;51.146;16.986;2023-02-13T02:46:00;16.17;;;8.63;;
10442;SDS011;5269;51.146;16.986;2023-02-13T02:48:37;14.63;;;9.07;;
10442;SDS011;5269;51.146;16.986;2023-02-13T02:51:29;14.65;;;8.70;;
10442;SDS011;5269;51.146;16.986;2023-02-13T02:54:02;13.02;;;8.05;;
10442;SDS011;5269;51.146;16.986;2023-02-13T02:56:56;15.13;;;9.27;;
10442;SDS011;5269;51.146;16.986;2023-02-13T02:59:31;12.98;;;8.80;;
10442;SDS011;5269;51.146;16.986;2023-02-13T03:02:19;15.43;;;9.60;;
10442;SDS011;5269;51.146;16.986;2023-02-13T03:05:09;14.43;;;8.82;;
10442;SDS011;5269;51.146;16.986;2023-02-13T03:08:01;13.45;;;9.25;;
10442;SDS011;5269;51.146;16.986;2023-02-13T03:10:30;17.58;;;10.05;;
10442;SDS011;5269;51.146;16.986;2023-02-13T03:13:17;14.05;;;9.55;;
10442;SDS011;5269;51.146;16.986;2023-02-13T03:15:58;15.25;;;9.43;;
10442;SDS011;5269;51.146;16.986;2023-02-13T03:18:44;15.50;;;10.40;;
10442;SDS011;5269;51.146;16.986;2023-02-13T03:21:36;14.52;;;9.88;;
10442;SDS011;5269;51.146;16.986;2023-02-13T03:24:32;14.82;;;10.60;;
10442;SDS011;5269;51.146;16.986;2023-02-13T03:27:07;14.57;;;10.23;;
10442;SDS011;5269;51.146;16.986;2023-02-13T03:29:40;18.92;;;11.48;;
10442;SDS011;5269;51.146;16.986;2023-02-13T03:32:39;18.02;;;10.65;;
10442;SDS011;5269;51.146;16.986;2023-02-13T03:35:15;16.27;;;10.80;;
10442;SDS011;5269;51.146;16.986;2023-02-13T03:38:12;16.33;;;10.52;;
10442;SDS011;5269;51.146;16.986;2023-02-13T03:40:45;17.45;;;11.25;;
10442;SDS011;5269;51.146;16.986;2023-02-13T03:43:35;18.75;;;11.35;;
10442;SDS011;5269;51.146;16.986;2023-02-13T03:46:07;20.23;;;14.05;;
10442;SDS011;5269;51.146;16.986;2023-02-13T03:48:36;19.30;;;12.35;;
10442;SDS011;5269;51.146;16.986;2023-02-13T03:51:25;18.80;;;12.50;;
10442;SDS011;5269;51.146;16.986;2023-02-13T03:53:58;19.88;;;13.10;;
10442;SDS011;5269;51.146;16.986;2023-02-13T03:56:28;22.33;;;12.95;;
10442;SDS011;5269;51.146;16.986;2023-02-13T03:59:17;21.38;;;13.48;;
10442;SDS011;5269;51.146;16.986;2023-02-13T04:01:58;18.67;;;12.07;;
10442;SDS011;5269;51.146;16.986;2023-02-13T04:04:29;19.80;;;13.10;;
10442;SDS011;5269;51.146;16.986;2023-02-13T04:07:04;21.20;;;13.35;;
10442;SDS011;5269;51.146;16.986;2023-02-13T04:09:36;21.38;;;12.70;;
10442;SDS011;5269;51.146;16.986;2023-02-13T04:12:06;21.05;;;13.65;;
10442;SDS011;5269;51.146;16.986;2023-02-13T04:14:40;23.17;;;13.43;;
10442;SDS011;5269;51.146;16.986;2023-02-13T04:17:14;24.02;;;13.45;;
10442;SDS011;5269;51.146;16.986;2023-02-13T04:19:46;25.00;;;14.70;;
10442;SDS011;5269;51.146;16.986;2023-02-13T04:22:13;21.20;;;13.73;;
10442;SDS011;5269;51.146;16.986;2023-02-13T04:24:42;27.75;;;14.98;;
10442;SDS011;5269;51.146;16.986;2023-02-13T04:27:09;26.80;;;16.25;;
10442;SDS011;5269;51.146;16.986;2023-02-13T04:29:39;23.92;;;15.60;;
10442;SDS011;5269;51.146;16.986;2023-02-13T04:32:06;27.30;;;16.30;;
10442;SDS011;5269;51.146;16.986;2023-02-13T04:34:35;26.25;;;16.08;;
10442;SDS011;5269;51.146;16.986;2023-02-13T04:37:02;25.77;;;16.10;;
10442;SDS011;5269;51.146;16.986;2023-02-13T04:39:29;25.58;;;16.30;;
10442;SDS011;5269;51.146;16.986;2023-02-13T04:41:57;29.90;;;17.02;;
10442;SDS011;5269;51.146;16.986;2023-02-13T04:44:24;26.92;;;17.30;;
10442;SDS011;5269;51.146;16.986;2023-02-13T04:46:51;24.33;;;15.82;;
10442;SDS011;5269;51.146;16.986;2023-02-13T04:49:18;24.42;;;15.73;;
10442;SDS011;5269;51.146;16.986;2023-02-13T04:51:44;28.00;;;16.70;;
10442;SDS011;5269;51.146;16.986;2023-02-13T04:54:11;25.65;;;16.58;;
10442;SDS011;5269;51.146;16.986;2023-02-13T04:56:38;26.90;;;16.80;;
10442;SDS011;5269;51.146;16.986;2023-02-13T04:59:06;27.73;;;16.65;;
10442;SDS011;5269;51.146;16.986;2023-02-13T05:01:33;29.50;;;17.00;;
10442;SDS011;5269;51.146;16.986;2023-02-13T05:04:00;29.83;;;17.73;;
10442;SDS011;5269;51.146;16.986;2023-02-13T05:06:27;34.50;;;18.58;;
10442;SDS011;5269;51.146;16.986;2023-02-13T05:08:54;30.60;;;17.30;;
10442;SDS011;5269;51.146;16.986;2023-02-13T05:11:21;28.40;;;17.15;;
10442;SDS011;5269;51.146;16.986;2023-02-13T05:13:47;27.88;;;15.90;;
10442;SDS011;5269;51.146;16.986;2023-02-13T05:16:16;26.35;;;15.70;;
10442;SDS011;5269;51.146;16.986;2023-02-13T05:18:43;26.83;;;15.63;;
10442;SDS011;5269;51.146;16.986;2023-02-13T05:21:09;27.67;;;15.38;;
10442;SDS011;5269;51.146;16.986;2023-02-13T05:23:53;26.45;;;15.13;;
10442;SDS011;5269;51.146;16.986;2023-02-13T05:26:20;24.60;;;15.55;;
10442;SDS011;5269;51.146;16.986;2023-02-13T05:28:47;26.65;;;15.75;;
10442;SDS011;5269;51.146;16.986;2023-02-13T05:31:33;26.48;;;14.85;;
10442;SDS011;5269;51.146;16.986;2023-02-13T05:34:00;25.48;;;15.27;;
10442;SDS011;5269;51.146;16.986;2023-02-13T05:36:26;32.15;;;16.05;;
10442;SDS011;5269;51.146;16.986;2023-02-13T05:38:53;26.45;;;15.60;;
10442;SDS011;5269;51.146;16.986;2023-02-13T05:41:20;24.55;;;14.82;;
10442;SDS011;5269;51.146;16.986;2023-02-13T05:43:47;27.30;;;14.27;;
10442;SDS011;5269;51.146;16.986;2023-02-13T05:46:14;26.33;;;14.50;;
10442;SDS011;5269;51.146;16.986;2023-02-13T05:48:42;25.33;;;14.95;;
10442;SDS011;5269;51.146;16.986;2023-02-13T05:51:09;23.88;;;14.25;;
10442;SDS011;5269;51.146;16.986;2023-02-13T05:53:36;26.77;;;14.38;;
10442;SDS011;5269;51.146;16.986;2023-02-13T05:56:04;26.27;;;15.43;;
10442;SDS011;5269;51.146;16.986;2023-02-13T05:58:31;24.85;;;14.50;;
10442;SDS011;5269;51.146;16.986;2023-02-13T06:00:58;27.05;;;14.27;;
10442;SDS011;5269;51.146;16.986;2023-02-13T06:03:26;27.00;;;15.38;;
10442;SDS011;5269;51.146;16.986;2023-02-13T06:05:55;26.50;;;14.52;;
10442;SDS011;5269;51.146;16.986;2023-02-13T06:08:22;25.83;;;14.80;;
10442;SDS011;5269;51.146;16.986;2023-02-13T06:10:50;24.88;;;14.57;;
10442;SDS011;5269;51.146;16.986;2023-02-13T06:13:17;26.45;;;14.95;;
10442;SDS011;5269;51.146;16.986;2023-02-13T06:15:44;26.40;;;15.63;;
10442;SDS011;5269;51.146;16.986;2023-02-13T06:18:11;28.92;;;14.98;;
10442;SDS011;5269;51.146;16.986;2023-02-13T06:20:38;24.15;;;13.85;;
10442;SDS011;5269;51.146;16.986;2023-02-13T06:23:09;23.15;;;14.05;;
10442;SDS011;5269;51.146;16.986;2023-02-13T06:25:38;23.90;;;13.52;;
10442;SDS011;5269;51.146;16.986;2023-02-13T06:28:10;27.35;;;14.40;;
10442;SDS011;5269;51.146;16.986;2023-02-13T06:30:37;27.33;;;14.88;;
10442;SDS011;5269;51.146;16.986;2023-02-13T06:33:04;24.70;;;14.02;;
10442;SDS011;5269;51.146;16.986;2023-02-13T06:35:31;23.38;;;14.05;;
10442;SDS011;5269;51.146;16.986;2023-02-13T06:37:58;23.10;;;13.90;;
10442;SDS011;5269;51.146;16.986;2023-02-13T06:40:28;25.95;;;14.30;;
10442;SDS011;5269;51.146;16.986;2023-02-13T06:42:56;30.08;;;14.07;;
10442;SDS011;5269;51.146;16.986;2023-02-13T06:45:23;22.60;;;13.30;;
10442;SDS011;5269;51.146;16.986;2023-02-13T06:47:50;27.20;;;15.45;;
10442;SDS011;5269;51.146;16.986;2023-02-13T06:50:20;24.92;;;14.57;;
10442;SDS011;5269;51.146;16.986;2023-02-13T06:52:48;22.67;;;13.77;;
10442;SDS011;5269;51.146;16.986;2023-02-13T06:55:16;27.02;;;14.32;;
10442;SDS011;5269;51.146;16.986;2023-02-13T06:57:46;24.55;;;14.27;;
10442;SDS011;5269;51.146;16.986;2023-02-13T07:00:14;26.75;;;15.35;;
10442;SDS011;5269;51.146;16.986;2023-02-13T07:02:43;26.88;;;15.15;;
10442;SDS011;5269;51.146;16.986;2023-02-13T07:05:12;32.88;;;17.00;;
10442;SDS011;5269;51.146;16.986;2023-02-13T07:07:39;32.22;;;17.20;;
10442;SDS011;5269;51.146;16.986;2023-02-13T07:10:08;35.88;;;18.45;;
10442;SDS011;5269;51.146;16.986;2023-02-13T07:12:37;34.40;;;19.15;;
10442;SDS011;5269;51.146;16.986;2023-02-13T07:15:06;34.85;;;19.75;;
10442;SDS011;5269;51.146;16.986;2023-02-13T07:17:34;36.03;;;18.65;;
10442;SDS011;5269;51.146;16.986;2023-02-13T07:20:01;30.45;;;18.70;;
10442;SDS011;5269;51.146;16.986;2023-02-13T07:22:31;36.72;;;19.25;;
10442;SDS011;5269;51.146;16.986;2023-02-13T07:24:58;31.23;;;18.20;;
10442;SDS011;5269;51.146;16.986;2023-02-13T07:27:25;30.50;;;17.38;;
10442;SDS011;5269;51.146;16.986;2023-02-13T07:29:53;32.08;;;18.10;;
10442;SDS011;5269;51.146;16.986;2023-02-13T07:32:23;29.77;;;17.92;;
10442;SDS011;5269;51.146;16.986;2023-02-13T07:34:50;32.70;;;17.52;;
10442;SDS011;5269;51.146;16.986;2023-02-13T07:37:17;30.98;;;17.50;;
10442;SDS011;5269;51.146;16.986;2023-02-13T07:39:44;33.90;;;18.02;;
10442;SDS011;5269;51.146;16.986;2023-02-13T07:42:10;30.50;;;17.80;;
10442;SDS011;5269;51.146;16.986;2023-02-13T07:44:37;28.13;;;15.88;;
10442;SDS011;5269;51.146;16.986;2023-02-13T07:47:04;31.73;;;16.15;;
10442;SDS011;5269;51.146;16.986;2023-02-13T07:49:34;31.20;;;17.25;;
10442;SDS011;5269;51.146;16.986;2023-02-13T07:52:01;28.67;;;17.38;;
10442;SDS011;5269;51.146;16.986;2023-02-13T07:54:29;29.25;;;16.48;;
10442;SDS011;5269;51.146;16.986;2023-02-13T07:56:56;30.55;;;17.48;;
10442;SDS011;5269;51.146;16.986;2023-02-13T07:59:23;28.98;;;15.43;;
10442;SDS011;5269;51.146;16.986;2023-02-13T08:01:50;33.55;;;17.10;;
10442;SDS011;5269;51.146;16.986;2023-02-13T08:04:16;34.97;;;18.55;;
10442;SDS011;5269;51.146;16.986;2023-02-13T08:06:47;35.85;;;18.60;;
10442;SDS011;5269;51.146;16.986;2023-02-13T08:09:18;34.17;;;16.77;;
10442;SDS011;5269;51.146;16.986;2023-02-13T08:12:04;33.65;;;17.35;;
10442;SDS011;5269;51.146;16.986;2023-02-13T08:14:32;32.33;;;16.83;;
10442;SDS011;5269;51.146;16.986;2023-02-13T08:16:59;39.42;;;18.30;;
10442;SDS011;5269;51.146;16.986;2023-02-13T08:19:26;34.55;;;17.40;;
10442;SDS011;5269;51.146;16.986;2023-02-13T08:21:55;36.58;;;16.70;;
10442;SDS011;5269;51.146;16.986;2023-02-13T08:24:22;34.25;;;16.48;;
10442;SDS011;5269;51.146;16.986;2023-02-13T08:26:49;37.53;;;18.73;;
10442;SDS011;5269;51.146;16.986;2023-02-13T08:29:16;38.10;;;17.10;;
10442;SDS011;5269;51.146;16.986;2023-02-13T08:31:45;35.00;;;17.35;;
10442;SDS011;5269;51.146;16.986;2023-02-13T08:34:12;34.85;;;15.68;;
10442;SDS011;5269;51.146;16.986;2023-02-13T08:36:39;35.22;;;14.82;;
10442;SDS011;5269;51.146;16.986;2023-02-13T08:39:08;36.00;;;17.17;;
10442;SDS011;5269;51.146;16.986;2023-02-13T08:41:35;34.92;;;14.45;;
10442;SDS011;5269;51.146;16.986;2023-02-13T08:44:02;37.38;;;15.98;;
10442;SDS011;5269;51.146;16.986;2023-02-13T08:46:29;33.80;;;13.25;;
10442;SDS011;5269;51.146;16.986;2023-02-13T08:48:56;39.67;;;16.58;;
10442;SDS011;5269;51.146;16.986;2023-02-13T08:51:23;35.17;;;15.63;;
10442;SDS011;5269;51.146;16.986;2023-02-13T08:53:50;34.08;;;15.00;;
10442;SDS011;5269;51.146;16.986;2023-02-13T08:56:18;30.60;;;14.15;;
10442;SDS011;5269;51.146;16.986;2023-02-13T08:58:46;33.95;;;14.40;;
10442;SDS011;5269;51.146;16.986;2023-02-13T09:01:14;32.60;;;14.50;;
10442;SDS011;5269;51.146;16.986;2023-02-13T09:03:41;31.52;;;13.55;;
10442;SDS011;5269;51.146;16.986;2023-02-13T09:06:08;31.65;;;14.68;;
10442;SDS011;5269;51.146;16.986;2023-02-13T09:08:35;28.13;;;14.27;;
10442;SDS011;5269;51.146;16.986;2023-02-13T09:11:02;27.00;;;13.13;;
10442;SDS011;5269;51.146;16.986;2023-02-13T09:13:33;14.40;;;8.75;;
10442;SDS011;5269;51.146;16.986;2023-02-13T09:16:01;15.10;;;8.02;;
10442;SDS011;5269;51.146;16.986;2023-02-13T09:18:30;10.13;;;5.68;;
10442;SDS011;5269;51.146;16.986;2023-02-13T09:20:57;7.50;;;4.82;;
10442;SDS011;5269;51.146;16.986;2023-02-13T09:23:25;9.35;;;4.75;;
10442;SDS011;5269;51.146;16.986;2023-02-13T09:25:57;6.07;;;3.80;;
10442;SDS011;5269;51.146;16.986;2023-02-13T09:28:25;4.82;;;3.00;;
10442;SDS011;5269;51.146;16.986;2023-02-13T09:30:53;4.82;;;3.25;;
10442;SDS011;5269;51.146;16.986;2023-02-13T09:33:20;4.13;;;3.00;;
10442;SDS011;5269;51.146;16.986;2023-02-13T09:35:47;4.28;;;3.10;;
10442;SDS011;5269;51.146;16.986;2023-02-13T09:38:13;4.20;;;3.00;;
10442;SDS011;5269;51.146;16.986;2023-02-13T09:40:42;4.25;;;3.03;;
10442;SDS011;5269;51.146;16.986;2023-02-13T09:43:14;3.33;;;2.47;;
10442;SDS011;5269;51.146;16.986;2023-02-13T09:45:48;3.20;;;2.50;;
10442;SDS011;5269;51.146;16.986;2023-02-13T09:51:02;2.78;;;2.38;;
10442;SDS011;5269;51.146;16.986;2023-02-13T09:53:31;4.35;;;2.22;;
10442;SDS011;5269;51.146;16.986;2023-02-13T09:56:05;2.92;;;2.47;;
10442;SDS011;5269;51.146;16.986;2023-02-13T09:58:38;3.75;;;2.50;;
10442;SDS011;5269;51.146;16.986;2023-02-13T10:01:18;2.83;;;2.53;;
10442;SDS011;5269;51.146;16.986;2023-02-13T10:03:56;2.83;;;2.20;;
10442;SDS011;5269;51.146;16.986;2023-02-13T10:06:38;2.80;;;2.25;;
10442;SDS011;5269;51.146;16.986;2023-02-13T10:09:16;2.50;;;2.30;;
10442;SDS011;5269;51.146;16.986;2023-02-13T10:11:52;4.75;;;2.95;;
10442;SDS011;5269;51.146;16.986;2023-02-13T10:14:35;3.78;;;2.15;;
10442;SDS011;5269;51.146;16.986;2023-02-13T10:17:10;3.90;;;2.58;;
10442;SDS011;5269;51.146;16.986;2023-02-13T10:19:44;3.58;;;2.30;;
10442;SDS011;5269;51.146;16.986;2023-02-13T10:22:16;2.08;;;1.90;;
10442;SDS011;5269;51.146;16.986;2023-02-13T10:24:45;2.47;;;2.08;;
10442;SDS011;5269;51.146;16.986;2023-02-13T10:27:18;2.25;;;2.00;;
10442;SDS011;5269;51.146;16.986;2023-02-13T10:29:49;3.45;;;2.25;;
10442;SDS011;5269;51.146;16.986;2023-02-13T10:32:35;1.90;;;1.60;;
10442;SDS011;5269;51.146;16.986;2023-02-13T10:35:15;2.45;;;2.10;;
10442;SDS011;5269;51.146;16.986;2023-02-13T10:37:53;2.65;;;2.00;;
10442;SDS011;5269;51.146;16.986;2023-02-13T10:40:23;1.70;;;1.60;;
10442;SDS011;5269;51.146;16.986;2023-02-13T10:42:57;2.78;;;2.22;;
10442;SDS011;5269;51.146;16.986;2023-02-13T10:45:40;2.47;;;2.20;;
10442;SDS011;5269;51.146;16.986;2023-02-13T10:48:25;1.88;;;1.77;;
10442;SDS011;5269;51.146;16.986;2023-02-13T10:51:05;2.88;;;2.10;;
10442;SDS011;5269;51.146;16.986;2023-02-13T10:53:41;2.10;;;1.95;;
10442;SDS011;5269;51.146;16.986;2023-02-13T10:56:22;2.33;;;2.10;;
10442;SDS011;5269;51.146;16.986;2023-02-13T10:58:54;2.97;;;2.42;;
10442;SDS011;5269;51.146;16.986;2023-02-13T11:01:32;2.53;;;1.95;;
10442;SDS011;5269;51.146;16.986;2023-02-13T11:04:06;2.20;;;2.00;;
10442;SDS011;5269;51.146;16.986;2023-02-13T11:06:37;2.60;;;2.40;;
10442;SDS011;5269;51.146;16.986;2023-02-13T11:09:07;2.63;;;2.40;;
10442;SDS011;5269;51.146;16.986;2023-02-13T11:11:38;4.05;;;1.73;;
10442;SDS011;5269;51.146;16.986;2023-02-13T11:16:55;3.60;;;2.70;;
10442;SDS011;5269;51.146;16.986;2023-02-13T11:19:36;6.32;;;2.95;;
10442;SDS011;5269;51.146;16.986;2023-02-13T11:22:10;5.47;;;3.10;;
10442;SDS011;5269;51.146;16.986;2023-02-13T11:24:38;4.07;;;2.78;;
10442;SDS011;5269;51.146;16.986;2023-02-13T11:27:07;3.28;;;2.67;;
10442;SDS011;5269;51.146;16.986;2023-02-13T11:29:49;3.15;;;2.67;;
10442;SDS011;5269;51.146;16.986;2023-02-13T11:32:19;3.60;;;2.60;;
10442;SDS011;5269;51.146;16.986;2023-02-13T11:34:47;2.97;;;2.63;;
10442;SDS011;5269;51.146;16.986;2023-02-13T11:37:29;2.92;;;2.63;;
10442;SDS011;5269;51.146;16.986;2023-02-13T11:39:57;3.38;;;2.38;;
10442;SDS011;5269;51.146;16.986;2023-02-13T11:42:26;3.40;;;2.90;;
10442;SDS011;5269;51.146;16.986;2023-02-13T11:44:57;3.00;;;2.70;;
10442;SDS011;5269;51.146;16.986;2023-02-13T11:47:34;3.13;;;2.28;;
10442;SDS011;5269;51.146;16.986;2023-02-13T11:50:04;2.35;;;2.15;;
10442;SDS011;5269;51.146;16.986;2023-02-13T11:52:45;1.80;;;1.70;;
10442;SDS011;5269;51.146;16.986;2023-02-13T11:55:26;2.53;;;2.33;;
10442;SDS011;5269;51.146;16.986;2023-02-13T11:57:56;2.00;;;1.90;;
10442;SDS011;5269;51.146;16.986;2023-02-13T12:00:26;2.10;;;1.98;;
10442;SDS011;5269;51.146;16.986;2023-02-13T12:02:56;2.15;;;1.92;;
10442;SDS011;5269;51.146;16.986;2023-02-13T12:05:24;2.67;;;2.00;;
10442;SDS011;5269;51.146;16.986;2023-02-13T12:07:54;2.50;;;2.30;;
10442;SDS011;5269;51.146;16.986;2023-02-13T12:10:25;2.70;;;2.50;;
10442;SDS011;5269;51.146;16.986;2023-02-13T12:12:54;2.63;;;2.08;;
10442;SDS011;5269;51.146;16.986;2023-02-13T12:15:23;2.13;;;2.00;;
10442;SDS011;5269;51.146;16.986;2023-02-13T12:17:56;3.22;;;2.30;;
10442;SDS011;5269;51.146;16.986;2023-02-13T12:20:34;2.75;;;2.17;;
10442;SDS011;5269;51.146;16.986;2023-02-13T12:23:15;2.50;;;2.30;;
10442;SDS011;5269;51.146;16.986;2023-02-13T12:25:59;2.72;;;2.53;;
10442;SDS011;5269;51.146;16.986;2023-02-13T12:28:45;2.40;;;2.20;;
10442;SDS011;5269;51.146;16.986;2023-02-13T12:31:37;2.40;;;2.20;;
10442;SDS011;5269;51.146;16.986;2023-02-13T12:37:17;2.80;;;2.60;;
10442;SDS011;5269;51.146;16.986;2023-02-13T12:39:57;3.53;;;2.78;;
10442;SDS011;5269;51.146;16.986;2023-02-13T12:42:40;2.97;;;2.70;;
10442;SDS011;5269;51.146;16.986;2023-02-13T12:45:15;3.80;;;2.45;;
10442;SDS011;5269;51.146;16.986;2023-02-13T12:50:50;2.38;;;2.15;;
10442;SDS011;5269;51.146;16.986;2023-02-13T12:53:33;2.55;;;2.22;;
10442;SDS011;5269;51.146;16.986;2023-02-13T12:59:18;1.98;;;1.88;;
10442;SDS011;5269;51.146;16.986;2023-02-13T13:02:13;2.08;;;1.98;;
10442;SDS011;5269;51.146;16.986;2023-02-13T13:04:58;1.98;;;1.88;;
10442;SDS011;5269;51.146;16.986;2023-02-13T13:07:39;1.88;;;1.77;;
10442;SDS011;5269;51.146;16.986;2023-02-13T13:13:18;1.90;;;1.80;;
10442;SDS011;5269;51.146;16.986;2023-02-13T13:15:56;2.00;;;1.90;;
10442;SDS011;5269;51.146;16.986;2023-02-13T13:18:30;1.70;;;1.60;;
10442;SDS011;5269;51.146;16.986;2023-02-13T13:21:06;2.10;;;1.90;;
10442;SDS011;5269;51.146;16.986;2023-02-13T13:23:43;1.80;;;1.70;;
10442;SDS011;5269;51.146;16.986;2023-02-13T13:26:17;1.92;;;1.83;;
10442;SDS011;5269;51.146;16.986;2023-02-13T13:28:51;1.90;;;1.80;;
10442;SDS011;5269;51.146;16.986;2023-02-13T13:31:20;2.10;;;2.00;;
10442;SDS011;5269;51.146;16.986;2023-02-13T13:33:50;3.42;;;1.75;;
10442;SDS011;5269;51.146;16.986;2023-02-13T13:36:18;1.80;;;1.70;;
10442;SDS011;5269;51.146;16.986;2023-02-13T13:38:55;2.53;;;1.80;;
10442;SDS011;5269;51.146;16.986;2023-02-13T13:41:29;2.33;;;2.13;;
10442;SDS011;5269;51.146;16.986;2023-02-13T13:44:08;2.60;;;2.40;;
10442;SDS011;5269;51.146;16.986;2023-02-13T13:46:47;2.28;;;2.00;;
10442;SDS011;5269;51.146;16.986;2023-02-13T13:49:23;2.47;;;2.28;;
10442;SDS011;5269;51.146;16.986;2023-02-13T13:52:21;2.70;;;2.50;;
10442;SDS011;5269;51.146;16.986;2023-02-13T13:54:50;2.17;;;2.08;;
10442;SDS011;5269;51.146;16.986;2023-02-13T13:57:20;2.45;;;2.25;;
10442;SDS011;5269;51.146;16.986;2023-02-13T13:59:55;2.90;;;2.60;;
10442;SDS011;5269;51.146;16.986;2023-02-13T14:02:44;2.50;;;2.30;;
10442;SDS011;5269;51.146;16.986;2023-02-13T14:05:21;3.03;;;2.60;;
10442;SDS011;5269;51.146;16.986;2023-02-13T14:07:52;2.70;;;2.50;;
10442;SDS011;5269;51.146;16.986;2023-02-13T14:13:33;2.95;;;2.75;;
10442;SDS011;5269;51.146;16.986;2023-02-13T14:16:03;2.50;;;2.30;;
10442;SDS011;5269;51.146;16.986;2023-02-13T14:18:31;4.55;;;3.00;;
10442;SDS011;5269;51.146;16.986;2023-02-13T14:21:00;3.22;;;2.63;;
10442;SDS011;5269;51.146;16.986;2023-02-13T14:23:32;3.17;;;2.85;;
10442;SDS011;5269;51.146;16.986;2023-02-13T14:26:32;3.20;;;2.90;;
10442;SDS011;5269;51.146;16.986;2023-02-13T14:34:57;3.38;;;3.08;;
10442;SDS011;5269;51.146;16.986;2023-02-13T14:37:33;3.55;;;3.20;;
10442;SDS011;5269;51.146;16.986;2023-02-13T14:46:02;4.13;;;2.90;;
10442;SDS011;5269;51.146;16.986;2023-02-13T14:48:38;3.65;;;3.17;;
10442;SDS011;5269;51.146;16.986;2023-02-13T14:51:12;3.35;;;3.10;;
10442;SDS011;5269;51.146;16.986;2023-02-13T14:53:53;3.40;;;3.10;;
10442;SDS011;5269;51.146;16.986;2023-02-13T14:56:23;3.53;;;3.20;;
10442;SDS011;5269;51.146;16.986;2023-02-13T14:58:53;3.95;;;3.20;;
10442;SDS011;5269;51.146;16.986;2023-02-13T15:01:30;3.50;;;3.20;;
10442;SDS011;5269;51.146;16.986;2023-02-13T15:04:01;4.28;;;3.22;;
10442;SDS011;5269;51.146;16.986;2023-02-13T15:06:35;3.42;;;3.13;;
10442;SDS011;5269;51.146;16.986;2023-02-13T15:09:11;2.70;;;2.50;;
10442;SDS011;5269;51.146;16.986;2023-02-13T15:11:44;3.67;;;3.35;;
10442;SDS011;5269;51.146;16.986;2023-02-13T15:14:15;3.40;;;2.83;;
10442;SDS011;5269;51.146;16.986;2023-02-13T15:16:44;3.72;;;3.35;;
10442;SDS011;5269;51.146;16.986;2023-02-13T15:19:15;3.65;;;2.70;;
10442;SDS011;5269;51.146;16.986;2023-02-13T15:21:47;3.35;;;3.00;;
10442;SDS011;5269;51.146;16.986;2023-02-13T15:24:17;3.78;;;3.10;;
10442;SDS011;5269;51.146;16.986;2023-02-13T15:26:52;3.47;;;2.70;;
10442;SDS011;5269;51.146;16.986;2023-02-13T15:29:25;3.58;;;3.00;;
10442;SDS011;5269;51.146;16.986;2023-02-13T15:31:53;3.10;;;2.80;;
10442;SDS011;5269;51.146;16.986;2023-02-13T15:34:23;3.85;;;3.05;;
10442;SDS011;5269;51.146;16.986;2023-02-13T15:36:52;3.10;;;2.80;;